Time;durP1;ratioP1;P1;durP2;ratioP2;P2;SDS_P1;SDS_P2;PMS_P1;PMS_P2;Temp;Humidity;BMP_temperature;BMP_pressure;BME280_temperature;BME280_humidity;BME280_pressure;Samples;Min_cycle;Max_cycle;Signal;HPM_P1;HPM_P2
2021/06/11 00:00:13;;;;;;;16.62;5.80;;;;;;;15.15;100.00;100273.70;1651190;86;21028;-86
2021/06/11 00:02:39;;;;;;;14.38;5.28;;;;;;;15.15;100.00;100274.25;1651353;87;21155;-87
2021/06/11 00:05:07;;;;;;;15.48;5.90;;;;;;;15.12;100.00;100269.42;1651379;86;21071;-86
2021/06/11 00:07:33;;;;;;;19.32;6.03;;;;;;;15.11;100.00;100270.50;1651448;86;21183;-87
2021/06/11 00:10:02;;;;;;;12.75;5.90;;;;;;;15.11;100.00;100281.36;1651430;87;21503;-84
2021/06/11 00:12:28;;;;;;;14.38;5.20;;;;;;;15.10;100.00;100281.12;1653276;86;21044;-87
2021/06/11 00:14:58;;;;;;;12.10;5.60;;;;;;;15.09;100.00;100280.84;1651594;87;21598;-87
2021/06/11 00:17:24;;;;;;;14.38;5.53;;;;;;;15.08;100.00;100288.74;1651354;86;21045;-86
2021/06/11 00:19:51;;;;;;;20.43;5.87;;;;;;;15.05;100.00;100278.48;1651485;87;21384;-87
2021/06/11 00:22:16;;;;;;;13.60;5.75;;;;;;;15.04;100.00;100286.38;1651409;86;20957;-86
2021/06/11 00:24:42;;;;;;;13.25;5.37;;;;;;;15.05;100.00;100288.78;1651459;86;20929;-85
2021/06/11 00:27:08;;;;;;;10.30;6.22;;;;;;;15.05;100.00;100289.34;1650829;86;21018;-85
2021/06/11 00:29:35;;;;;;;16.27;6.05;;;;;;;15.05;100.00;100289.34;1653979;86;21060;-86
2021/06/11 00:32:00;;;;;;;15.90;5.70;;;;;;;15.05;100.00;100288.78;1652211;86;21075;-86
2021/06/11 00:34:27;;;;;;;14.70;6.17;;;;;;;15.06;100.00;100286.34;1650911;86;20948;-86
2021/06/11 00:36:52;;;;;;;10.63;5.67;;;;;;;15.07;100.00;100290.66;1640872;86;21162;-85
2021/06/11 00:39:18;;;;;;;15.13;6.37;;;;;;;15.02;100.00;100298.08;1651248;85;21013;-86
2021/06/11 00:41:44;;;;;;;12.30;6.17;;;;;;;14.95;100.00;100295.19;1651597;86;20988;-87
2021/06/11 00:44:10;;;;;;;21.15;5.92;;;;;;;14.91;100.00;100298.25;1655950;85;21141;-86
2021/06/11 00:46:36;;;;;;;17.82;6.28;;;;;;;14.91;100.00;100296.90;1656797;85;20972;-85
2021/06/11 00:49:02;;;;;;;17.30;6.50;;;;;;;14.92;100.00;100301.21;1655964;86;20920;-86
2021/06/11 00:51:28;;;;;;;19.77;5.80;;;;;;;14.86;100.00;100299.69;1654168;86;20870;-88
2021/06/11 00:53:55;;;;;;;24.63;5.40;;;;;;;14.81;100.00;100297.05;1650625;87;21099;-86
2021/06/11 00:56:22;;;;;;;17.12;5.28;;;;;;;14.79;100.00;100293.81;1650489;86;21989;-86
2021/06/11 00:58:48;;;;;;;43.48;4.80;;;;;;;14.76;100.00;100291.69;1650530;87;21171;-85
2021/06/11 01:01:14;;;;;;;33.25;4.67;;;;;;;14.66;100.00;100295.92;1652261;85;21114;-87
2021/06/11 01:03:40;;;;;;;36.40;4.90;;;;;;;14.60;100.00;100297.91;1652514;86;20866;-83
2021/06/11 01:06:06;;;;;;;34.70;4.47;;;;;;;14.59;100.00;100303.61;1651033;86;21091;-86
2021/06/11 01:08:32;;;;;;;30.32;4.28;;;;;;;14.60;100.00;100305.23;1653243;86;21087;-87
2021/06/11 01:11:00;;;;;;;44.25;4.37;;;;;;;14.62;100.00;100305.73;1656295;86;21055;-86
2021/06/11 01:13:27;;;;;;;14.83;3.80;;;;;;;14.64;100.00;100300.83;1642050;86;20992;-87
2021/06/11 01:15:54;;;;;;;31.68;4.20;;;;;;;14.67;100.00;100300.24;1656395;85;21028;-86
2021/06/11 01:18:20;;;;;;;25.05;3.37;;;;;;;14.67;100.00;100299.69;1656066;86;21012;-87
2021/06/11 01:20:47;;;;;;;22.00;3.33;;;;;;;14.70;100.00;100298.30;1653518;86;21091;-86
2021/06/11 01:23:44;;;;;;;14.50;3.50;;;;;;;14.69;100.00;100295.34;1650661;86;21086;-87
2021/06/11 01:26:38;;;;;;;7.37;3.17;;;;;;;14.64;100.00;100296.77;1645255;86;21560;-87
2021/06/11 01:29:08;;;;;;;8.15;3.65;;;;;;;14.61;100.00;100302.77;1651289;86;21008;-87
2021/06/11 01:31:41;;;;;;;12.58;3.90;;;;;;;14.64;100.00;100310.33;1594605;88;21114;-86
2021/06/11 01:34:12;;;;;;;13.10;4.03;;;;;;;14.68;100.00;100312.16;1585301;90;21902;-87
2021/06/11 01:36:49;;;;;;;11.22;4.42;;;;;;;14.68;100.00;100317.59;1574415;91;21628;-87
2021/06/11 01:39:19;;;;;;;8.80;3.77;;;;;;;14.69;100.00;100315.13;1513314;94;21141;-89
2021/06/11 01:41:47;;;;;;;8.28;4.42;;;;;;;14.72;100.00;100314.53;1513422;94;21245;-87
2021/06/11 01:44:15;;;;;;;11.22;4.50;;;;;;;14.74;100.00;100308.83;1481590;94;21121;-87
2021/06/11 01:46:44;;;;;;;12.68;4.53;;;;;;;14.76;100.00;100312.03;1513093;94;21228;-87
2021/06/11 01:49:12;;;;;;;6.35;4.00;;;;;;;14.79;100.00;100320.94;1513317;94;21080;-86
2021/06/11 01:51:39;;;;;;;8.45;4.05;;;;;;;14.81;100.00;100326.89;1494568;94;21084;-87
2021/06/11 01:54:09;;;;;;;13.58;4.35;;;;;;;14.84;100.00;100333.08;1513468;94;21071;-86
2021/06/11 01:56:36;;;;;;;8.83;5.03;;;;;;;14.86;100.00;100327.37;1513420;94;21092;-87
2021/06/11 01:59:03;;;;;;;10.00;4.22;;;;;;;14.89;100.00;100332.20;1513410;94;21324;-87
2021/06/11 02:01:32;;;;;;;9.35;4.85;;;;;;;14.92;100.00;100328.91;1513503;94;21112;-86
2021/06/11 02:04:00;;;;;;;9.45;5.15;;;;;;;14.95;100.00;100327.75;1513411;94;21672;-86
2021/06/11 02:06:27;;;;;;;12.80;4.90;;;;;;;15.01;100.00;100327.68;1513754;94;21119;-87
2021/06/11 02:08:54;;;;;;;10.23;4.72;;;;;;;15.07;100.00;100322.42;1513127;94;21649;-86
2021/06/11 02:11:22;;;;;;;13.00;4.97;;;;;;;15.10;100.00;100322.63;1512728;94;21370;-86
2021/06/11 02:13:51;;;;;;;11.95;5.65;;;;;;;15.13;100.00;100322.59;1511523;95;21088;-87
2021/06/11 02:16:20;;;;;;;12.95;5.58;;;;;;;15.19;100.00;100322.77;1511467;95;21031;-88
2021/06/11 02:18:47;;;;;;;16.07;6.08;;;;;;;15.27;100.00;100322.08;1511531;95;21058;-87
2021/06/11 02:21:14;;;;;;;12.68;6.08;;;;;;;15.34;100.00;100323.84;1511412;95;21625;-87
2021/06/11 02:23:41;;;;;;;17.05;6.60;;;;;;;15.47;100.00;100328.24;1511413;95;21099;-87
2021/06/11 02:26:13;;;;;;;18.67;6.62;;;;;;;15.60;100.00;100320.12;1510778;93;21891;-87
2021/06/11 02:28:39;;;;;;;12.73;5.92;;;;;;;15.71;100.00;100320.78;1527370;93;21668;-87
2021/06/11 02:31:06;;;;;;;11.45;5.70;;;;;;;15.85;100.00;100326.20;1539331;93;21547;-87
2021/06/11 02:33:32;;;;;;;17.07;5.65;;;;;;;16.01;100.00;100321.29;1539553;93;21120;-87
2021/06/11 02:35:58;;;;;;;16.82;6.10;;;;;;;16.16;100.00;100329.69;1588213;87;21203;-87
2021/06/11 02:38:29;;;;;;;11.53;5.28;;;;;;;16.32;100.00;100326.88;1641008;87;21000;-87
2021/06/11 02:40:58;;;;;;;10.13;4.55;;;;;;;16.39;100.00;100326.48;1652055;85;20988;-87
2021/06/11 02:43:26;;;;;;;14.43;5.25;;;;;;;16.43;100.00;100326.11;1655357;86;21047;-87
2021/06/11 02:46:15;;;;;;;23.00;5.15;;;;;;;16.53;100.00;100332.68;1654862;86;21141;-84
2021/06/11 02:48:49;;;;;;;8.73;4.80;;;;;;;16.78;100.00;100332.14;1656892;86;21348;-87
2021/06/11 02:51:39;;;;;;;16.02;4.78;;;;;;;17.28;100.00;100332.58;1652320;86;21033;-87
2021/06/11 02:54:12;;;;;;;12.25;4.60;;;;;;;17.89;100.00;100324.75;1651030;85;21051;-87
2021/06/11 02:56:43;;;;;;;22.07;4.55;;;;;;;18.48;100.00;100323.83;1654185;85;21520;-86
2021/06/11 02:59:20;;;;;;;10.25;4.37;;;;;;;18.83;100.00;100321.16;1646180;86;21108;-86
2021/06/11 03:01:51;;;;;;;8.85;4.28;;;;;;;18.80;100.00;100321.80;1642756;86;21977;-87
2021/06/11 03:04:19;;;;;;;12.23;4.50;;;;;;;18.75;100.00;100320.02;1645094;87;21067;-89
2021/06/11 03:06:47;;;;;;;9.20;4.53;;;;;;;18.70;100.00;100320.70;1645039;86;21032;-86
2021/06/11 03:09:19;;;;;;;11.05;4.55;;;;;;;18.70;100.00;100318.77;1645340;87;21020;-87
2021/06/11 03:11:43;;;;;;;10.10;4.25;;;;;;;18.88;100.00;100320.97;1641997;87;21008;-86
2021/06/11 03:14:11;;;;;;;7.45;3.90;;;;;;;19.21;100.00;100321.84;1624362;87;21061;-86
2021/06/11 03:16:44;;;;;;;11.12;3.87;;;;;;;19.68;100.00;100313.12;1645072;86;21350;-83
2021/06/11 03:19:12;;;;;;;8.15;3.85;;;;;;;20.34;100.00;100312.59;1622537;87;21020;-86
2021/06/11 03:21:48;;;;;;;7.53;4.65;;;;;;;20.98;100.00;100310.10;1645197;87;21040;-86
2021/06/11 03:24:31;;;;;;;8.18;3.58;;;;;;;21.71;100.00;100302.64;1643154;86;20988;-86
2021/06/11 03:27:11;;;;;;;7.00;3.70;;;;;;;22.54;100.00;100312.88;1648554;86;21151;-86
2021/06/11 03:29:44;;;;;;;9.90;3.70;;;;;;;23.38;100.00;100311.27;1630928;88;21487;-88
2021/06/11 03:32:22;;;;;;;10.82;3.87;;;;;;;24.16;100.00;100311.84;1630774;86;21019;-86
2021/06/11 03:34:49;;;;;;;7.83;3.60;;;;;;;24.68;100.00;100311.23;1581735;88;21070;-86
2021/06/11 03:37:18;;;;;;;12.23;3.60;;;;;;;24.86;100.00;100316.52;1581880;90;21048;-87
2021/06/11 03:40:01;;;;;;;7.42;3.45;;;;;;;25.31;100.00;100307.34;1583879;90;21487;-88
2021/06/11 03:42:29;;;;;;;10.60;3.35;;;;;;;26.04;100.00;100307.58;1520913;94;21040;-87
2021/06/11 03:44:59;;;;;;;15.13;4.03;;;;;;;26.51;100.00;100301.36;1521036;94;21078;-87
2021/06/11 03:47:31;;;;;;;8.48;3.50;;;;;;;27.02;100.00;100300.77;1521205;94;21131;-88
2021/06/11 03:49:59;;;;;;;8.13;3.85;;;;;;;27.21;100.00;100306.73;1521029;94;21107;-86
2021/06/11 03:52:30;;;;;;;8.03;4.25;;;;;;;27.53;100.00;100304.27;1513749;94;21204;-87
2021/06/11 03:55:04;;;;;;;8.48;4.67;;;;;;;27.89;100.00;100303.19;1513336;94;21233;-86
2021/06/11 03:57:31;;;;;;;9.65;4.10;;;;;;;27.82;100.00;100305.30;1523936;94;21138;-88
2021/06/11 03:59:59;;;;;;;9.95;4.40;;;;;;;27.91;100.00;100304.97;1523996;94;21052;-87
2021/06/11 04:02:26;;;;;;;9.08;4.03;;;;;;;28.40;100.00;100308.44;1523911;94;21076;-87
2021/06/11 04:04:52;;;;;;;11.15;4.60;;;;;;;28.90;99.07;100308.08;1523803;94;21188;-88
2021/06/11 04:07:30;;;;;;;10.38;4.45;;;;;;;29.33;92.01;100309.59;1539485;92;21096;-88
2021/06/11 04:10:10;;;;;;;9.50;4.25;;;;;;;29.42;89.59;100307.83;1545902;92;21665;-88
2021/06/11 04:12:50;;;;;;;9.53;4.45;;;;;;;29.68;87.19;100306.67;1509458;95;21037;-88
2021/06/11 04:15:18;;;;;;;10.18;4.30;;;;;;;30.31;86.03;100310.56;1508995;95;21088;-88
2021/06/11 04:17:50;;;;;;;9.45;4.78;;;;;;;30.87;76.14;100301.63;1509854;95;21143;-88
2021/06/11 04:20:21;;;;;;;12.20;6.37;;;;;;;31.31;74.48;100305.13;1509653;95;21578;-88
2021/06/11 04:22:50;;;;;;;10.58;5.35;;;;;;;31.61;68.01;100298.16;1444843;99;21079;-89
2021/06/11 04:25:18;;;;;;;11.70;5.85;;;;;;;31.94;69.01;100302.86;1446694;99;21576;-89
2021/06/11 04:27:48;;;;;;;12.65;6.40;;;;;;;32.20;63.55;100306.37;1438778;99;21143;-88
2021/06/11 04:30:15;;;;;;;11.40;5.70;;;;;;;32.23;65.26;100308.33;1427056;100;21247;-89
2021/06/11 04:32:44;;;;;;;12.85;6.10;;;;;;;32.75;63.86;100313.72;1452641;98;21462;-89
2021/06/11 04:35:10;;;;;;;9.88;5.65;;;;;;;33.40;60.29;100301.03;1453672;98;21681;-90
2021/06/11 04:37:38;;;;;;;19.12;8.73;;;;;;;33.81;56.52;100304.17;1453950;98;21145;-89
2021/06/11 04:40:08;;;;;;;17.35;8.65;;;;;;;33.90;53.00;100314.19;1453662;98;21207;-89
2021/06/11 04:42:35;;;;;;;16.37;8.15;;;;;;;33.87;53.96;100317.05;1453874;98;22045;-90
2021/06/11 04:45:01;;;;;;;15.88;7.55;;;;;;;34.15;53.22;100310.16;1457576;96;21216;-90
2021/06/11 04:47:27;;;;;;;16.17;7.60;;;;;;;34.19;53.18;100311.51;1453876;98;21060;-87
2021/06/11 04:49:54;;;;;;;15.15;8.30;;;;;;;34.24;51.61;100309.59;1478591;95;21168;-90
2021/06/11 04:52:23;;;;;;;15.45;8.08;;;;;;;34.48;50.72;100304.13;1498220;95;21441;-90
2021/06/11 04:54:50;;;;;;;20.02;8.98;;;;;;;34.68;49.23;100301.92;1514607;94;21148;-90
2021/06/11 04:57:16;;;;;;;18.25;8.63;;;;;;;34.74;48.90;100300.19;1520942;93;21657;-90
2021/06/11 04:59:42;;;;;;;21.17;9.45;;;;;;;35.11;48.25;100303.20;1520795;94;21066;-90
2021/06/11 05:02:09;;;;;;;19.67;9.60;;;;;;;35.49;47.09;100301.29;1520893;94;21077;-91
2021/06/11 05:04:36;;;;;;;17.77;9.33;;;;;;;35.44;46.49;100292.78;1520646;94;21077;-91
2021/06/11 05:07:03;;;;;;;21.00;9.13;;;;;;;35.53;46.32;100297.77;1520823;94;22064;-91
2021/06/11 05:09:29;;;;;;;13.38;8.05;;;;;;;35.96;45.51;100296.70;1520816;90;21141;-91
2021/06/11 05:11:55;;;;;;;12.82;7.85;;;;;;;36.12;43.30;100298.09;1520670;94;21679;-82
2021/06/11 05:14:21;;;;;;;13.00;7.60;;;;;;;36.19;44.11;100299.13;1520445;94;21683;-82
2021/06/11 05:16:47;;;;;;;17.98;8.55;;;;;;;36.22;43.50;100301.05;1520604;94;21105;-82
2021/06/11 05:19:13;;;;;;;15.98;7.75;;;;;;;36.16;43.79;100303.60;1552005;88;21961;-82
2021/06/11 05:21:39;;;;;;;14.30;7.62;;;;;;;36.23;42.92;100305.41;1619947;88;21060;-82
2021/06/11 05:24:07;;;;;;;15.23;8.38;;;;;;;36.35;42.61;100310.27;1621335;88;20897;-82
2021/06/11 05:26:33;;;;;;;17.35;8.45;;;;;;;36.54;42.76;100315.59;1620151;87;21115;-81
2021/06/11 05:28:59;;;;;;;17.07;7.78;;;;;;;36.99;43.50;100311.83;1635276;86;21046;-83
2021/06/11 05:31:24;;;;;;;13.35;7.45;;;;;;;37.64;41.66;100313.39;1638912;86;21182;-82
2021/06/11 05:33:50;;;;;;;14.25;7.33;;;;;;;37.99;39.47;100318.43;1627139;87;20908;-84
2021/06/11 05:36:16;;;;;;;16.57;8.10;;;;;;;38.06;38.76;100323.02;1626408;88;21008;-83
2021/06/11 05:38:43;;;;;;;12.58;8.00;;;;;;;37.67;40.02;100319.52;1628322;87;20909;-84
2021/06/11 05:41:09;;;;;;;10.75;7.62;;;;;;;38.00;38.36;100322.03;1612767;88;21027;-83
2021/06/11 05:43:35;;;;;;;17.25;8.53;;;;;;;38.42;39.11;100311.88;1624165;87;21177;-83
2021/06/11 05:46:02;;;;;;;18.52;8.85;;;;;;;38.71;36.84;100315.22;1624160;87;21527;-84
2021/06/11 05:48:28;;;;;;;16.45;8.25;;;;;;;38.94;37.35;100318.78;1624264;87;21394;-84
2021/06/11 05:50:55;;;;;;;16.12;8.33;;;;;;;39.06;36.30;100320.70;1624068;87;21020;-83
2021/06/11 05:53:24;;;;;;;22.90;8.50;;;;;;;38.61;36.60;100317.80;1614878;87;21004;-84
2021/06/11 05:55:51;;;;;;;20.12;7.97;;;;;;;37.43;37.04;100319.87;1627676;87;21096;-83
2021/06/11 05:58:18;;;;;;;21.87;8.28;;;;;;;36.16;39.30;100324.03;1615118;88;21012;-84
2021/06/11 06:00:44;;;;;;;13.93;8.40;;;;;;;35.87;40.28;100326.78;1612747;88;21143;-84
2021/06/11 06:03:10;;;;;;;15.95;8.23;;;;;;;35.46;41.45;100324.59;1625729;87;20897;-84
2021/06/11 06:05:36;;;;;;;15.70;8.00;;;;;;;35.35;42.21;100324.05;1624485;87;21003;-84
2021/06/11 06:08:02;;;;;;;18.87;8.63;;;;;;;35.88;42.15;100329.75;1624449;88;21314;-84
2021/06/11 06:10:28;;;;;;;17.95;9.23;;;;;;;36.48;41.46;100329.36;1626121;87;21048;-82
2021/06/11 06:12:53;;;;;;;17.07;8.53;;;;;;;36.51;40.85;100334.70;1627018;87;21047;-85
2021/06/11 06:15:20;;;;;;;16.87;8.83;;;;;;;36.92;40.63;100331.73;1626418;87;20943;-85
2021/06/11 06:17:46;;;;;;;20.77;9.23;;;;;;;37.46;39.52;100334.42;1615360;87;21056;-84
2021/06/11 06:20:14;;;;;;;18.65;9.35;;;;;;;37.66;38.96;100337.64;1624383;87;21721;-85
2021/06/11 06:22:41;;;;;;;25.65;8.10;;;;;;;37.95;37.99;100331.23;1624447;88;21075;-85
2021/06/11 06:25:09;;;;;;;20.08;8.63;;;;;;;38.17;37.50;100329.83;1624787;88;21075;-85
2021/06/11 06:27:36;;;;;;;17.50;8.30;;;;;;;38.48;36.38;100332.60;1626559;87;21108;-84
2021/06/11 06:30:05;;;;;;;14.20;8.00;;;;;;;38.53;37.39;100328.55;1624950;87;21067;-85
2021/06/11 06:32:31;;;;;;;16.73;7.92;;;;;;;39.14;35.53;100326.22;1624606;87;21173;-84
2021/06/11 06:34:58;;;;;;;11.43;7.12;;;;;;;39.49;36.01;100331.69;1624731;87;21520;-85
2021/06/11 06:37:24;;;;;;;12.47;7.05;;;;;;;40.04;34.36;100322.54;1624726;87;21072;-85
2021/06/11 06:39:52;;;;;;;14.95;7.97;;;;;;;40.19;34.29;100332.75;1624883;87;21036;-85
2021/06/11 06:42:18;;;;;;;11.63;8.08;;;;;;;40.43;33.05;100328.48;1624649;87;20957;-84
2021/06/11 06:44:45;;;;;;;15.50;8.83;;;;;;;40.60;33.88;100329.08;1624402;87;21165;-85
2021/06/11 06:47:11;;;;;;;13.22;7.40;;;;;;;41.02;31.54;100328.96;1624598;87;21072;-84
2021/06/11 06:49:38;;;;;;;13.98;7.35;;;;;;;41.02;32.07;100333.20;1624857;87;21586;-85
2021/06/11 06:52:04;;;;;;;13.65;7.42;;;;;;;40.35;32.67;100337.27;1624715;88;21511;-85
2021/06/11 06:54:31;;;;;;;12.63;8.20;;;;;;;39.84;33.88;100344.94;1624924;87;21481;-85
2021/06/11 06:56:56;;;;;;;16.75;7.80;;;;;;;40.13;33.09;100340.88;1624694;88;21172;-85
2021/06/11 06:59:22;;;;;;;11.78;6.45;;;;;;;40.53;33.41;100341.32;1624597;87;20913;-86
2021/06/11 07:01:49;;;;;;;8.70;6.12;;;;;;;40.64;31.61;100346.66;1624481;87;20952;-85
2021/06/11 07:04:17;;;;;;;11.43;5.80;;;;;;;40.73;31.98;100347.27;1624834;87;21087;-84
2021/06/11 07:06:48;;;;;;;12.53;5.60;;;;;;;40.85;32.15;100341.27;1624519;87;21525;-85
2021/06/11 07:09:11;;;;;;;10.68;5.40;;;;;;;39.71;32.54;100345.06;1622863;88;21024;-86
2021/06/11 07:11:37;;;;;;;9.38;5.00;;;;;;;38.38;33.64;100349.37;1624580;87;21009;-85
2021/06/11 07:14:04;;;;;;;7.75;4.65;;;;;;;37.32;35.26;100350.97;1624575;87;21064;-85
2021/06/11 07:16:30;;;;;;;11.12;5.75;;;;;;;36.40;36.56;100349.04;1624892;88;21095;-85
2021/06/11 07:18:55;;;;;;;6.87;4.40;;;;;;;35.91;38.34;100351.92;1625165;88;21031;-85
2021/06/11 07:21:21;;;;;;;8.80;4.53;;;;;;;36.59;37.99;100345.32;1624820;87;21119;-85
2021/06/11 07:23:47;;;;;;;6.83;3.72;;;;;;;37.23;36.27;100350.23;1624829;88;20904;-84
2021/06/11 07:26:13;;;;;;;8.53;3.77;;;;;;;36.93;36.43;100348.13;1624831;87;21708;-84
2021/06/11 07:28:39;;;;;;;14.33;5.00;;;;;;;36.49;36.93;100351.98;1626031;87;20916;-84
2021/06/11 07:31:06;;;;;;;8.45;4.70;;;;;;;36.11;37.61;100351.22;1627045;88;21079;-84
2021/06/11 07:33:33;;;;;;;8.03;4.55;;;;;;;35.73;38.00;100345.99;1625450;87;21829;-84
2021/06/11 07:36:02;;;;;;;17.07;4.80;;;;;;;35.70;39.22;100344.85;1641381;86;21040;-86
2021/06/11 07:38:28;;;;;;;9.25;4.65;;;;;;;36.47;38.81;100345.23;1625164;87;21070;-84
2021/06/11 07:40:54;;;;;;;8.68;4.12;;;;;;;37.15;37.92;100345.48;1625355;86;21111;-83
2021/06/11 07:43:22;;;;;;;9.08;4.03;;;;;;;38.03;37.53;100338.00;1625369;86;20996;-84
2021/06/11 07:45:51;;;;;;;6.92;4.33;;;;;;;38.72;35.73;100325.23;1625770;87;21185;-86
2021/06/11 07:48:18;;;;;;;5.78;3.47;;;;;;;39.13;32.94;100330.94;1651623;86;21062;-85
2021/06/11 07:50:44;;;;;;;9.25;3.40;;;;;;;39.13;32.94;100330.94;1624173;86;21051;-84
2021/06/11 07:53:10;;;;;;;7.55;3.52;;;;;;;38.75;33.12;100324.30;1623078;86;20920;-83
2021/06/11 07:55:36;;;;;;;5.95;3.77;;;;;;;38.73;34.15;100326.01;1627690;86;21070;-85
2021/06/11 07:58:02;;;;;;;5.47;3.35;;;;;;;39.05;33.67;100316.33;1626450;86;21144;-79
2021/06/11 08:00:29;;;;;;;7.30;3.25;;;;;;;39.52;32.84;100311.01;1609092;88;21118;-85
2021/06/11 08:02:57;;;;;;;5.50;3.80;;;;;;;39.80;33.23;100309.05;1626343;86;21076;-86
2021/06/11 08:05:24;;;;;;;8.13;3.92;;;;;;;40.59;31.20;100308.34;1645303;85;21017;-85
2021/06/11 08:07:51;;;;;;;5.83;3.60;;;;;;;40.79;29.84;100305.02;1624866;86;21462;-87
2021/06/11 08:10:19;;;;;;;7.05;3.75;;;;;;;40.66;32.20;100298.16;1621931;87;21978;-82
2021/06/11 08:12:45;;;;;;;6.00;3.55;;;;;;;40.59;31.06;100296.44;1639845;87;21541;-85
2021/06/11 08:15:12;;;;;;;6.65;3.62;;;;;;;39.79;32.04;100299.00;1634805;86;20917;-83
2021/06/11 08:17:38;;;;;;;6.58;4.03;;;;;;;38.80;32.23;100300.39;1635041;86;21076;-85
2021/06/11 08:20:10;;;;;;;9.13;4.25;;;;;;;38.80;32.23;100300.39;1628671;86;21914;-85
2021/06/11 08:22:37;;;;;;;;;;;;;;;37.90;32.86;100308.48;1626400;86;21120;-84
2021/06/11 08:25:07;;;;;;;11.45;3.58;;;;;;;36.76;33.96;100305.28;1614576;86;20199;-84
2021/06/11 08:27:33;;;;;;;7.65;3.80;;;;;;;35.77;36.18;100314.42;1620999;86;21088;-85
2021/06/11 08:30:00;;;;;;;6.42;4.10;;;;;;;35.19;37.39;100319.23;1620103;86;21126;-85
2021/06/11 08:32:26;;;;;;;6.75;3.60;;;;;;;35.10;37.65;100319.84;1606823;88;21622;-86
2021/06/11 08:34:52;;;;;;;11.33;3.50;;;;;;;35.59;37.82;100312.89;1629973;86;21071;-84
2021/06/11 08:37:20;;;;;;;7.20;3.83;;;;;;;35.52;37.26;100308.04;1609292;86;21031;-83
2021/06/11 08:39:47;;;;;;;5.65;3.40;;;;;;;35.34;38.28;100321.09;1603794;89;21087;-87
2021/06/11 08:42:17;;;;;;;5.03;2.75;;;;;;;34.76;38.06;100319.54;1644784;87;21021;-85
2021/06/11 08:44:43;;;;;;;6.60;3.27;;;;;;;34.09;39.92;100311.87;1646396;86;21034;-88
2021/06/11 08:47:09;;;;;;;6.80;3.05;;;;;;;33.65;40.49;100315.22;1674167;85;21790;-88
2021/06/11 08:49:35;;;;;;;5.55;3.35;;;;;;;33.35;40.58;100313.29;1655385;85;21019;-84
2021/06/11 08:52:02;;;;;;;9.98;3.20;;;;;;;33.17;42.12;100307.98;1660966;85;21159;-84
2021/06/11 08:54:28;;;;;;;6.53;3.42;;;;;;;33.07;41.91;100303.36;1661618;86;21005;-85
2021/06/11 08:56:54;;;;;;;5.35;2.85;;;;;;;33.05;43.21;100300.19;1663301;86;21031;-85
2021/06/11 08:59:20;;;;;;;6.42;2.90;;;;;;;33.42;43.77;100289.45;1658600;86;21912;-85
2021/06/11 09:01:46;;;;;;;8.15;3.20;;;;;;;33.88;43.43;100285.85;1652843;86;21105;-86
2021/06/11 09:04:12;;;;;;;6.30;2.87;;;;;;;35.09;43.35;100275.44;1665399;86;20905;-87
2021/06/11 09:06:38;;;;;;;4.90;2.77;;;;;;;36.16;39.99;100269.31;1657043;86;20893;-84
2021/06/11 09:09:05;;;;;;;4.97;2.67;;;;;;;36.80;37.17;100272.27;1652842;86;20978;-85
2021/06/11 09:11:35;;;;;;;3.67;2.40;;;;;;;37.50;36.84;100263.44;1654166;85;21068;-86
2021/06/11 09:14:12;;;;;;;7.10;2.75;;;;;;;38.31;35.88;100252.52;1654500;85;21452;-86
2021/06/11 09:16:45;;;;;;;5.80;2.85;;;;;;;39.05;34.19;100255.09;1652221;86;20988;-86
2021/06/11 09:19:19;;;;;;;5.15;2.55;;;;;;;39.41;33.49;100257.08;1654726;85;21582;-85
2021/06/11 09:21:50;;;;;;;4.87;2.40;;;;;;;38.87;32.18;100259.27;1651395;86;21011;-86
2021/06/11 09:27:08;;;;;;;3.25;2.25;;;;;;;37.65;31.08;100262.33;1651951;86;21084;-86
2021/06/11 09:29:45;;;;;;;3.40;2.40;;;;;;;37.01;31.94;100268.65;1656714;85;21068;-86
2021/06/11 09:32:16;;;;;;;2.75;2.08;;;;;;;36.24;33.58;100279.73;1657904;85;21059;-85
2021/06/11 09:34:50;;;;;;;3.57;2.47;;;;;;;35.18;35.05;100276.42;1654230;86;21028;-86
2021/06/11 09:37:30;;;;;;;4.12;2.65;;;;;;;34.58;35.24;100273.73;1619676;88;21245;-86
2021/06/11 09:40:07;;;;;;;2.75;2.30;;;;;;;34.28;36.27;100276.14;1612966;88;21137;-87
2021/06/11 09:42:36;;;;;;;4.47;2.10;;;;;;;33.83;38.42;100270.98;1570641;90;21066;-86
2021/06/11 09:45:09;;;;;;;3.05;2.55;;;;;;;33.32;39.16;100263.23;1567546;91;21042;-87
2021/06/11 09:47:43;;;;;;;3.10;2.47;;;;;;;32.87;40.47;100254.34;1566957;91;21082;-85
2021/06/11 09:50:36;;;;;;;6.10;2.67;;;;;;;32.58;41.77;100259.70;1565429;91;21208;-85
2021/06/11 09:53:09;;;;;;;;;;;;;;;32.26;42.30;100264.27;1567257;91;21060;-85
2021/06/11 09:55:46;;;;;;;5.45;2.50;;;;;;;31.86;43.48;100261.70;1565301;91;20169;-85
2021/06/11 09:58:23;;;;;;;4.22;2.85;;;;;;;31.54;44.27;100257.83;1565306;91;21051;-86
2021/06/11 10:01:02;;;;;;;4.17;2.52;;;;;;;31.27;44.30;100252.03;1540096;93;21617;-86
2021/06/11 10:03:32;;;;;;;7.80;2.52;;;;;;;31.19;46.49;100256.28;1538882;93;21161;-86
2021/06/11 10:06:01;;;;;;;8.63;3.17;;;;;;;30.85;47.63;100261.67;1540186;93;21059;-86
2021/06/11 10:08:28;;;;;;;5.53;3.52;;;;;;;30.48;48.99;100258.86;1540340;93;21100;-86
2021/06/11 10:10:58;;;;;;;9.98;4.10;;;;;;;30.08;51.97;100267.11;1540268;93;21656;-87
2021/06/11 10:13:25;;;;;;;10.13;4.15;;;;;;;29.83;54.13;100265.18;1540288;93;21063;-86
2021/06/11 10:15:55;;;;;;;10.20;5.25;;;;;;;29.55;56.07;100272.11;1540338;93;21413;-86
2021/06/11 10:18:22;;;;;;;13.90;5.05;;;;;;;29.20;57.87;100270.30;1545540;92;21111;-86
2021/06/11 10:20:49;;;;;;;11.12;4.47;;;;;;;28.92;59.79;100260.53;1545691;92;21622;-86
2021/06/11 10:23:19;;;;;;;13.38;5.30;;;;;;;28.62;62.91;100251.12;1545422;92;21054;-86
2021/06/11 10:25:48;;;;;;;8.33;4.87;;;;;;;28.39;64.87;100250.83;1545625;92;21045;-86
2021/06/11 10:28:22;;;;;;;12.85;4.03;;;;;;;28.21;66.81;100258.27;1545487;92;21161;-86
2021/06/11 10:30:57;;;;;;;9.48;4.15;;;;;;;28.13;68.17;100267.72;1501083;95;21558;-86
2021/06/11 10:33:51;;;;;;;9.15;4.28;;;;;;;27.98;69.46;100269.02;1499851;95;21073;-87
2021/06/11 10:36:39;;;;;;;11.22;4.60;;;;;;;27.85;70.09;100269.11;1491528;96;21670;-86
2021/06/11 10:39:14;;;;;;;11.70;5.00;;;;;;;27.63;76.68;100266.77;1472312;96;21044;-87
2021/06/11 10:42:00;;;;;;;11.65;4.45;;;;;;;27.47;78.49;100267.61;1467603;97;21604;-85
2021/06/11 10:44:42;;;;;;;9.33;4.53;;;;;;;27.29;81.70;100260.54;1469439;97;21086;-87
2021/06/11 10:47:22;;;;;;;11.45;5.05;;;;;;;27.21;86.99;100263.03;1466745;97;21081;-86
2021/06/11 10:50:04;;;;;;;11.78;4.92;;;;;;;27.01;94.09;100267.37;1469126;96;21113;-85
2021/06/11 10:52:53;;;;;;;10.25;5.03;;;;;;;26.80;100.00;100274.06;1467348;96;21708;-84
2021/06/11 10:55:44;;;;;;;12.98;5.22;;;;;;;26.59;100.00;100280.94;1469093;97;21438;-84
2021/06/11 10:58:14;;;;;;;12.30;5.53;;;;;;;26.37;100.00;100268.77;1463810;97;21160;-86
2021/06/11 11:00:42;;;;;;;13.58;5.70;;;;;;;26.27;100.00;100264.70;1469202;96;21107;-85
2021/06/11 11:03:19;;;;;;;11.78;6.20;;;;;;;26.16;100.00;100269.28;1472322;95;21546;-84
2021/06/11 11:05:46;;;;;;;16.23;6.08;;;;;;;26.03;100.00;100274.24;1398361;102;21186;-85
2021/06/11 11:08:12;;;;;;;15.05;5.92;;;;;;;25.90;100.00;100295.53;1411915;100;21242;-86
2021/06/11 11:10:51;;;;;;;11.12;6.05;;;;;;;25.78;100.00;100306.95;1414645;101;21057;-86
2021/06/11 11:13:25;;;;;;;11.30;6.30;;;;;;;25.58;100.00;100313.72;1415728;100;21086;-84
2021/06/11 11:15:55;;;;;;;9.05;5.47;;;;;;;25.46;100.00;100301.48;1432708;99;21145;-85
2021/06/11 11:18:38;;;;;;;14.25;5.72;;;;;;;25.28;100.00;100295.06;1439457;99;21138;-86
2021/06/11 11:21:25;;;;;;;16.50;5.67;;;;;;;25.02;100.00;100300.46;1439915;98;21122;-84
2021/06/11 11:24:00;;;;;;;13.62;5.30;;;;;;;24.80;100.00;100314.42;1450474;96;21124;-84
2021/06/11 11:26:49;;;;;;;6.45;3.95;;;;;;;24.50;100.00;100319.68;1468409;94;21134;-85
2021/06/11 11:29:20;;;;;;;11.28;5.05;;;;;;;24.23;100.00;100329.09;1524336;91;21111;-86